sensor_id;sensor_type;location;lat;lon;timestamp;temperature;humidity
67750;DHT22;54550;48.838;8.828;2023-03-21T12:57:03;17.70;93.00
67750;DHT22;54550;48.838;8.828;2023-03-21T13:02:28;17.60;93.40
67750;DHT22;54550;48.838;8.828;2023-03-21T13:05:35;18.00;93.90
67750;DHT22;54550;48.838;8.828;2023-03-21T13:10:27;18.00;92.20
67750;DHT22;54550;48.838;8.828;2023-03-21T13:13:16;17.70;93.40
67750;DHT22;54550;48.838;8.828;2023-03-21T13:16:00;17.80;93.10
67750;DHT22;54550;48.838;8.828;2023-03-21T13:20:57;17.50;93.30
67750;DHT22;54550;48.838;8.828;2023-03-21T13:23:24;17.10;93.80
67750;DHT22;54550;48.838;8.828;2023-03-21T13:25:57;16.60;94.50
67750;DHT22;54550;48.838;8.828;2023-03-21T13:28:31;16.20;95.00
67750;DHT22;54550;48.838;8.828;2023-03-21T13:31:17;16.10;99.90
67750;DHT22;54550;48.838;8.828;2023-03-21T13:33:52;16.10;97.10
67750;DHT22;54550;48.838;8.828;2023-03-21T13:36:27;16.20;95.90
67750;DHT22;54550;48.838;8.828;2023-03-21T13:38:59;15.90;95.80
67750;DHT22;54550;48.838;8.828;2023-03-21T13:41:31;15.90;95.60
67750;DHT22;54550;48.838;8.828;2023-03-21T13:51:44;16.10;96.10
67750;DHT22;54550;48.838;8.828;2023-03-21T14:04:36;15.80;96.80
67750;DHT22;54550;48.838;8.828;2023-03-21T14:07:13;15.70;97.30
67750;DHT22;54550;48.838;8.828;2023-03-21T14:09:49;15.80;97.60
67750;DHT22;54550;48.838;8.828;2023-03-21T14:12:19;15.70;97.50
67750;DHT22;54550;48.838;8.828;2023-03-21T14:14:58;15.30;96.80
67750;DHT22;54550;48.838;8.828;2023-03-21T14:17:25;15.20;97.20
67750;DHT22;54550;48.838;8.828;2023-03-21T14:19:52;15.20;97.50
67750;DHT22;54550;48.838;8.828;2023-03-21T14:22:18;15.00;97.50
67750;DHT22;54550;48.838;8.828;2023-03-21T14:24:53;15.10;97.60
67750;DHT22;54550;48.838;8.828;2023-03-21T14:27:19;15.10;97.50
67750;DHT22;54550;48.838;8.828;2023-03-21T14:29:46;15.10;97.90
67750;DHT22;54550;48.838;8.828;2023-03-21T14:32:22;15.30;97.70
67750;DHT22;54550;48.838;8.828;2023-03-21T14:34:48;15.20;98.20
67750;DHT22;54550;48.838;8.828;2023-03-21T14:40:05;15.20;97.40
67750;DHT22;54550;48.838;8.828;2023-03-21T14:42:36;15.20;98.70
67750;DHT22;54550;48.838;8.828;2023-03-21T14:45:20;15.20;98.00
67750;DHT22;54550;48.838;8.828;2023-03-21T14:50:48;15.70;97.40
67750;DHT22;54550;48.838;8.828;2023-03-21T14:53:25;15.60;97.00
67750;DHT22;54550;48.838;8.828;2023-03-21T14:58:26;15.30;97.40
67750;DHT22;54550;48.838;8.828;2023-03-21T15:00:56;15.20;97.60
67750;DHT22;54550;48.838;8.828;2023-03-21T15:03:23;15.10;98.00
67750;DHT22;54550;48.838;8.828;2023-03-21T15:05:51;15.10;98.30
67750;DHT22;54550;48.838;8.828;2023-03-21T15:08:20;15.20;97.80
67750;DHT22;54550;48.838;8.828;2023-03-21T15:10:57;15.20;98.90
67750;DHT22;54550;48.838;8.828;2023-03-21T15:13:48;15.20;98.80
67750;DHT22;54550;48.838;8.828;2023-03-21T15:16:16;15.20;98.10
67750;DHT22;54550;48.838;8.828;2023-03-21T15:18:43;15.10;99.00
67750;DHT22;54550;48.838;8.828;2023-03-21T15:21:22;15.20;99.10
67750;DHT22;54550;48.838;8.828;2023-03-21T15:23:53;15.10;98.60
67750;DHT22;54550;48.838;8.828;2023-03-21T15:26:23;14.90;98.60
67750;DHT22;54550;48.838;8.828;2023-03-21T15:28:54;14.90;99.00
67750;DHT22;54550;48.838;8.828;2023-03-21T15:31:23;14.80;99.30
67750;DHT22;54550;48.838;8.828;2023-03-21T15:33:51;14.70;99.40
67750;DHT22;54550;48.838;8.828;2023-03-21T15:36:28;14.50;99.30
67750;DHT22;54550;48.838;8.828;2023-03-21T15:38:56;14.50;99.40
67750;DHT22;54550;48.838;8.828;2023-03-21T15:41:27;14.50;99.90
67750;DHT22;54550;48.838;8.828;2023-03-21T15:46:48;14.40;99.90
67750;DHT22;54550;48.838;8.828;2023-03-21T15:52:03;14.10;99.90
67750;DHT22;54550;48.838;8.828;2023-03-21T15:54:40;14.00;99.90
67750;DHT22;54550;48.838;8.828;2023-03-21T15:59:44;14.00;99.90
67750;DHT22;54550;48.838;8.828;2023-03-21T16:02:20;13.90;99.90
67750;DHT22;54550;48.838;8.828;2023-03-21T16:07:48;13.80;99.90
67750;DHT22;54550;48.838;8.828;2023-03-21T16:10:34;13.70;99.90
67750;DHT22;54550;48.838;8.828;2023-03-21T16:13:03;13.60;99.90
67750;DHT22;54550;48.838;8.828;2023-03-21T16:15:29;13.50;99.90
67750;DHT22;54550;48.838;8.828;2023-03-21T17:04:24;13.00;99.90
67750;DHT22;54550;48.838;8.828;2023-03-21T17:06:52;13.00;99.90
67750;DHT22;54550;48.838;8.828;2023-03-21T17:09:20;12.90;99.90
67750;DHT22;54550;48.838;8.828;2023-03-21T17:11:46;12.80;99.90
67750;DHT22;54550;48.838;8.828;2023-03-21T17:14:13;12.70;99.90
67750;DHT22;54550;48.838;8.828;2023-03-21T17:16:42;12.60;99.90
67750;DHT22;54550;48.838;8.828;2023-03-21T17:19:13;12.50;99.90
67750;DHT22;54550;48.838;8.828;2023-03-21T17:21:39;12.40;99.90
67750;DHT22;54550;48.838;8.828;2023-03-21T17:24:05;12.30;99.90
67750;DHT22;54550;48.838;8.828;2023-03-21T17:26:31;12.30;99.90
67750;DHT22;54550;48.838;8.828;2023-03-21T17:28:57;12.20;99.90
67750;DHT22;54550;48.838;8.828;2023-03-21T17:31:25;12.20;99.90
67750;DHT22;54550;48.838;8.828;2023-03-21T17:33:51;12.10;99.90
67750;DHT22;54550;48.838;8.828;2023-03-21T17:38:48;12.00;99.90
67750;DHT22;54550;48.838;8.828;2023-03-21T17:41:16;11.90;99.90
67750;DHT22;54550;48.838;8.828;2023-03-21T17:43:42;11.80;99.90
67750;DHT22;54550;48.838;8.828;2023-03-21T17:46:13;11.60;99.90
67750;DHT22;54550;48.838;8.828;2023-03-21T17:48:40;11.50;99.90
67750;DHT22;54550;48.838;8.828;2023-03-21T17:51:07;11.40;99.90
67750;DHT22;54550;48.838;8.828;2023-03-21T17:53:37;11.30;99.90
67750;DHT22;54550;48.838;8.828;2023-03-21T17:56:02;11.20;99.90
67750;DHT22;54550;48.838;8.828;2023-03-21T17:58:28;11.00;99.90
67750;DHT22;54550;48.838;8.828;2023-03-21T18:00:54;10.90;99.90
67750;DHT22;54550;48.838;8.828;2023-03-21T18:03:19;10.80;99.90
67750;DHT22;54550;48.838;8.828;2023-03-21T18:05:45;10.70;99.90
67750;DHT22;54550;48.838;8.828;2023-03-21T18:08:10;10.70;99.90
67750;DHT22;54550;48.838;8.828;2023-03-21T18:10:37;10.60;99.90
67750;DHT22;54550;48.838;8.828;2023-03-21T18:13:03;10.60;99.90
67750;DHT22;54550;48.838;8.828;2023-03-21T18:15:28;10.50;99.90
67750;DHT22;54550;48.838;8.828;2023-03-21T18:17:54;10.50;99.90
67750;DHT22;54550;48.838;8.828;2023-03-21T18:20:22;10.40;99.90
67750;DHT22;54550;48.838;8.828;2023-03-21T18:22:48;10.40;99.90
67750;DHT22;54550;48.838;8.828;2023-03-21T18:25:15;10.30;99.90
67750;DHT22;54550;48.838;8.828;2023-03-21T18:27:41;10.30;99.90
67750;DHT22;54550;48.838;8.828;2023-03-21T18:30:11;10.20;99.90
67750;DHT22;54550;48.838;8.828;2023-03-21T18:32:38;10.30;99.90
67750;DHT22;54550;48.838;8.828;2023-03-21T18:35:05;10.30;99.90
67750;DHT22;54550;48.838;8.828;2023-03-21T18:37:31;10.30;99.90
67750;DHT22;54550;48.838;8.828;2023-03-21T18:39:58;10.30;99.90
67750;DHT22;54550;48.838;8.828;2023-03-21T18:42:24;10.40;99.90
67750;DHT22;54550;48.838;8.828;2023-03-21T18:44:50;10.40;99.90
67750;DHT22;54550;48.838;8.828;2023-03-21T18:47:16;10.40;99.90
67750;DHT22;54550;48.838;8.828;2023-03-21T18:49:42;10.40;99.90
67750;DHT22;54550;48.838;8.828;2023-03-21T18:52:08;10.40;99.90
67750;DHT22;54550;48.838;8.828;2023-03-21T18:54:35;10.40;99.90
67750;DHT22;54550;48.838;8.828;2023-03-21T18:57:02;10.40;99.90
67750;DHT22;54550;48.838;8.828;2023-03-21T18:59:28;10.40;99.90
67750;DHT22;54550;48.838;8.828;2023-03-21T19:01:55;10.40;99.90
67750;DHT22;54550;48.838;8.828;2023-03-21T19:04:20;10.40;99.90
67750;DHT22;54550;48.838;8.828;2023-03-21T19:06:47;10.40;99.90
67750;DHT22;54550;48.838;8.828;2023-03-21T19:09:12;10.40;99.90
67750;DHT22;54550;48.838;8.828;2023-03-21T19:11:41;10.40;99.90
67750;DHT22;54550;48.838;8.828;2023-03-21T19:14:12;10.40;99.90
67750;DHT22;54550;48.838;8.828;2023-03-21T19:16:38;10.50;99.90
67750;DHT22;54550;48.838;8.828;2023-03-21T19:19:06;10.50;99.90
67750;DHT22;54550;48.838;8.828;2023-03-21T19:21:31;10.40;99.90
67750;DHT22;54550;48.838;8.828;2023-03-21T19:23:57;10.40;99.90
67750;DHT22;54550;48.838;8.828;2023-03-21T19:26:24;10.40;99.90
67750;DHT22;54550;48.838;8.828;2023-03-21T19:28:51;10.40;99.90
67750;DHT22;54550;48.838;8.828;2023-03-21T19:31:16;10.30;99.90
67750;DHT22;54550;48.838;8.828;2023-03-21T19:33:43;10.30;99.90
67750;DHT22;54550;48.838;8.828;2023-03-21T19:36:09;10.30;99.90
67750;DHT22;54550;48.838;8.828;2023-03-21T19:38:35;10.20;99.90
67750;DHT22;54550;48.838;8.828;2023-03-21T19:41:01;10.20;99.90
67750;DHT22;54550;48.838;8.828;2023-03-21T19:43:27;10.20;99.90
67750;DHT22;54550;48.838;8.828;2023-03-21T19:45:53;10.20;99.90
67750;DHT22;54550;48.838;8.828;2023-03-21T19:48:21;10.20;99.90
67750;DHT22;54550;48.838;8.828;2023-03-21T19:50:46;10.20;99.90
67750;DHT22;54550;48.838;8.828;2023-03-21T19:53:13;10.30;99.90
67750;DHT22;54550;48.838;8.828;2023-03-21T19:55:38;10.30;99.90
67750;DHT22;54550;48.838;8.828;2023-03-21T19:58:04;10.30;99.90
67750;DHT22;54550;48.838;8.828;2023-03-21T20:00:32;10.40;99.90
67750;DHT22;54550;48.838;8.828;2023-03-21T20:02:57;10.40;99.90
67750;DHT22;54550;48.838;8.828;2023-03-21T20:05:23;10.30;99.90
67750;DHT22;54550;48.838;8.828;2023-03-21T20:07:50;10.20;99.90
67750;DHT22;54550;48.838;8.828;2023-03-21T20:10:18;10.10;99.90
67750;DHT22;54550;48.838;8.828;2023-03-21T20:12:44;10.00;99.90
67750;DHT22;54550;48.838;8.828;2023-03-21T20:15:10;9.90;99.90
67750;DHT22;54550;48.838;8.828;2023-03-21T20:17:36;9.80;99.90
67750;DHT22;54550;48.838;8.828;2023-03-21T20:20:03;9.70;99.90
67750;DHT22;54550;48.838;8.828;2023-03-21T20:22:38;9.70;99.90
67750;DHT22;54550;48.838;8.828;2023-03-21T20:25:04;9.60;99.90
67750;DHT22;54550;48.838;8.828;2023-03-21T20:27:35;9.70;99.90
67750;DHT22;54550;48.838;8.828;2023-03-21T20:30:07;9.70;99.90
67750;DHT22;54550;48.838;8.828;2023-03-21T20:32:37;9.90;99.90
67750;DHT22;54550;48.838;8.828;2023-03-21T20:35:04;9.90;99.90
67750;DHT22;54550;48.838;8.828;2023-03-21T20:37:32;9.90;99.90
67750;DHT22;54550;48.838;8.828;2023-03-21T20:39:58;9.90;99.90
67750;DHT22;54550;48.838;8.828;2023-03-21T20:42:23;9.80;99.90
67750;DHT22;54550;48.838;8.828;2023-03-21T20:44:49;9.80;99.90
67750;DHT22;54550;48.838;8.828;2023-03-21T20:47:16;9.70;99.90
67750;DHT22;54550;48.838;8.828;2023-03-21T20:49:41;9.70;99.90
67750;DHT22;54550;48.838;8.828;2023-03-21T20:52:07;9.70;99.90
67750;DHT22;54550;48.838;8.828;2023-03-21T20:54:33;9.70;99.90
67750;DHT22;54550;48.838;8.828;2023-03-21T20:56:59;9.70;99.90
67750;DHT22;54550;48.838;8.828;2023-03-21T20:59:25;9.80;99.90
67750;DHT22;54550;48.838;8.828;2023-03-21T21:01:53;9.80;99.90
67750;DHT22;54550;48.838;8.828;2023-03-21T21:04:18;9.80;99.90
67750;DHT22;54550;48.838;8.828;2023-03-21T21:06:48;9.80;99.90
67750;DHT22;54550;48.838;8.828;2023-03-21T21:09:14;9.80;99.90
67750;DHT22;54550;48.838;8.828;2023-03-21T21:11:40;9.80;99.90
67750;DHT22;54550;48.838;8.828;2023-03-21T21:14:05;9.80;99.90
67750;DHT22;54550;48.838;8.828;2023-03-21T21:16:31;9.90;99.90
67750;DHT22;54550;48.838;8.828;2023-03-21T21:18:57;9.90;99.90
67750;DHT22;54550;48.838;8.828;2023-03-21T21:21:23;9.90;99.90
67750;DHT22;54550;48.838;8.828;2023-03-21T21:23:50;9.90;99.90
67750;DHT22;54550;48.838;8.828;2023-03-21T21:26:15;9.90;99.90
67750;DHT22;54550;48.838;8.828;2023-03-21T21:28:41;9.90;99.90
67750;DHT22;54550;48.838;8.828;2023-03-21T21:31:13;9.90;99.90
67750;DHT22;54550;48.838;8.828;2023-03-21T21:33:41;9.80;99.90
67750;DHT22;54550;48.838;8.828;2023-03-21T21:36:08;9.80;99.90
67750;DHT22;54550;48.838;8.828;2023-03-21T21:38:35;9.80;99.90
67750;DHT22;54550;48.838;8.828;2023-03-21T21:41:01;9.80;99.90
67750;DHT22;54550;48.838;8.828;2023-03-21T21:43:27;9.80;99.90
67750;DHT22;54550;48.838;8.828;2023-03-21T21:45:53;9.90;99.90
67750;DHT22;54550;48.838;8.828;2023-03-21T21:48:19;9.90;99.90
67750;DHT22;54550;48.838;8.828;2023-03-21T21:50:45;9.80;99.90
67750;DHT22;54550;48.838;8.828;2023-03-21T21:53:13;9.80;99.90
67750;DHT22;54550;48.838;8.828;2023-03-21T21:55:44;9.80;99.90
67750;DHT22;54550;48.838;8.828;2023-03-21T21:58:16;9.70;99.90
67750;DHT22;54550;48.838;8.828;2023-03-21T22:00:44;9.70;99.90
67750;DHT22;54550;48.838;8.828;2023-03-21T22:03:10;9.60;99.90
67750;DHT22;54550;48.838;8.828;2023-03-21T22:05:36;9.60;99.90
67750;DHT22;54550;48.838;8.828;2023-03-21T22:08:02;9.50;99.90
67750;DHT22;54550;48.838;8.828;2023-03-21T22:10:30;9.50;99.90
67750;DHT22;54550;48.838;8.828;2023-03-21T22:12:57;9.40;99.90
67750;DHT22;54550;48.838;8.828;2023-03-21T22:15:23;9.30;99.90
67750;DHT22;54550;48.838;8.828;2023-03-21T22:17:49;9.20;99.90
67750;DHT22;54550;48.838;8.828;2023-03-21T22:20:17;9.00;99.90
67750;DHT22;54550;48.838;8.828;2023-03-21T22:22:43;8.90;99.90
67750;DHT22;54550;48.838;8.828;2023-03-21T22:25:11;8.70;99.90
67750;DHT22;54550;48.838;8.828;2023-03-21T22:27:37;8.60;99.90
67750;DHT22;54550;48.838;8.828;2023-03-21T22:30:04;8.40;99.90
67750;DHT22;54550;48.838;8.828;2023-03-21T22:32:36;8.20;99.90
67750;DHT22;54550;48.838;8.828;2023-03-21T22:35:03;8.10;99.90
67750;DHT22;54550;48.838;8.828;2023-03-21T22:37:31;8.00;99.90
67750;DHT22;54550;48.838;8.828;2023-03-21T22:39:57;8.10;99.90
67750;DHT22;54550;48.838;8.828;2023-03-21T22:42:23;8.00;99.90
67750;DHT22;54550;48.838;8.828;2023-03-21T22:44:48;7.80;99.90
67750;DHT22;54550;48.838;8.828;2023-03-21T22:47:14;7.70;99.90
67750;DHT22;54550;48.838;8.828;2023-03-21T22:49:40;7.60;99.90
67750;DHT22;54550;48.838;8.828;2023-03-21T22:52:10;7.60;99.90
67750;DHT22;54550;48.838;8.828;2023-03-21T22:54:37;7.50;99.90
67750;DHT22;54550;48.838;8.828;2023-03-21T22:57:03;7.40;99.90
67750;DHT22;54550;48.838;8.828;2023-03-21T22:59:29;7.30;99.90
67750;DHT22;54550;48.838;8.828;2023-03-21T23:01:54;7.30;99.90
67750;DHT22;54550;48.838;8.828;2023-03-21T23:04:21;7.20;99.90
67750;DHT22;54550;48.838;8.828;2023-03-21T23:06:47;7.10;99.90
67750;DHT22;54550;48.838;8.828;2023-03-21T23:09:12;7.10;99.90
67750;DHT22;54550;48.838;8.828;2023-03-21T23:11:39;7.10;99.90
67750;DHT22;54550;48.838;8.828;2023-03-21T23:14:05;7.10;99.90
67750;DHT22;54550;48.838;8.828;2023-03-21T23:16:32;7.00;99.90
67750;DHT22;54550;48.838;8.828;2023-03-21T23:18:59;7.00;99.90
67750;DHT22;54550;48.838;8.828;2023-03-21T23:21:24;7.00;99.90
67750;DHT22;54550;48.838;8.828;2023-03-21T23:23:51;7.00;99.90
67750;DHT22;54550;48.838;8.828;2023-03-21T23:26:18;7.00;99.90
67750;DHT22;54550;48.838;8.828;2023-03-21T23:28:45;6.90;99.90
67750;DHT22;54550;48.838;8.828;2023-03-21T23:31:14;6.90;99.90
67750;DHT22;54550;48.838;8.828;2023-03-21T23:33:41;6.90;99.90
67750;DHT22;54550;48.838;8.828;2023-03-21T23:36:08;6.90;99.90
67750;DHT22;54550;48.838;8.828;2023-03-21T23:38:33;6.80;99.90
67750;DHT22;54550;48.838;8.828;2023-03-21T23:40:59;6.70;99.90
67750;DHT22;54550;48.838;8.828;2023-03-21T23:43:26;6.70;99.90
67750;DHT22;54550;48.838;8.828;2023-03-21T23:45:52;6.70;99.90
67750;DHT22;54550;48.838;8.828;2023-03-21T23:48:18;6.70;99.90
67750;DHT22;54550;48.838;8.828;2023-03-21T23:50:43;6.80;99.90
67750;DHT22;54550;48.838;8.828;2023-03-21T23:53:10;6.80;99.90
67750;DHT22;54550;48.838;8.828;2023-03-21T23:55:37;6.80;99.90
67750;DHT22;54550;48.838;8.828;2023-03-21T23:58:02;6.70;99.90
